sensor_id;sensor_type;location;lat;lon;timestamp;pressure;altitude;pressure_sealevel;temperature;humidity
5679;BME280;2862;52.560;13.566;2024-02-23T00:02:00;97625.47;;;10.03;100.00
5679;BME280;2862;52.560;13.566;2024-02-23T00:12:03;97621.97;;;9.96;100.00
5679;BME280;2862;52.560;13.566;2024-02-23T00:22:09;97623.00;;;9.95;100.00
5679;BME280;2862;52.560;13.566;2024-02-23T00:32:12;97607.81;;;10.02;100.00
5679;BME280;2862;52.560;13.566;2024-02-23T00:42:20;97602.47;;;10.02;100.00
5679;BME280;2862;52.560;13.566;2024-02-23T00:52:23;97625.47;;;10.03;100.00
5679;BME280;2862;52.560;13.566;2024-02-23T01:02:28;97630.41;;;10.00;100.00
5679;BME280;2862;52.560;13.566;2024-02-23T01:12:32;97641.91;;;10.00;100.00
5679;BME280;2862;52.560;13.566;2024-02-23T01:22:36;97655.63;;;9.97;100.00
5679;BME280;2862;52.560;13.566;2024-02-23T01:32:40;97681.13;;;10.00;100.00
5679;BME280;2862;52.560;13.566;2024-02-23T01:42:44;97697.81;;;10.15;100.00
5679;BME280;2862;52.560;13.566;2024-02-23T01:52:48;97726.84;;;10.31;100.00
5679;BME280;2862;52.560;13.566;2024-02-23T02:02:55;97746.84;;;10.49;100.00
5679;BME280;2862;52.560;13.566;2024-02-23T02:13:02;97802.00;;;10.70;100.00
5679;BME280;2862;52.560;13.566;2024-02-23T02:23:06;97825.25;;;10.76;96.62
5679;BME280;2862;52.560;13.566;2024-02-23T02:33:12;97863.91;;;10.73;92.33
5679;BME280;2862;52.560;13.566;2024-02-23T02:43:16;97901.41;;;10.52;84.80
5679;BME280;2862;52.560;13.566;2024-02-23T02:53:19;97940.75;;;10.36;79.82
5679;BME280;2862;52.560;13.566;2024-02-23T03:03:24;97949.78;;;10.14;73.44
5679;BME280;2862;52.560;13.566;2024-02-23T03:13:27;97980.44;;;9.97;74.38
5679;BME280;2862;52.560;13.566;2024-02-23T03:23:31;98007.97;;;9.76;73.67
5679;BME280;2862;52.560;13.566;2024-02-23T03:33:34;98023.72;;;9.71;72.79
5679;BME280;2862;52.560;13.566;2024-02-23T03:43:39;98036.31;;;9.62;71.38
5679;BME280;2862;52.560;13.566;2024-02-23T03:53:42;98054.09;;;9.55;71.01
5679;BME280;2862;52.560;13.566;2024-02-23T04:03:46;98072.34;;;9.37;69.84
5679;BME280;2862;52.560;13.566;2024-02-23T04:13:50;98113.34;;;9.36;70.41
5679;BME280;2862;52.560;13.566;2024-02-23T04:23:54;98122.72;;;9.17;72.41
5679;BME280;2862;52.560;13.566;2024-02-23T04:33:57;98157.28;;;9.10;73.94
5679;BME280;2862;52.560;13.566;2024-02-23T04:44:01;98200.19;;;9.00;72.56
5679;BME280;2862;52.560;13.566;2024-02-23T04:54:04;98213.28;;;8.87;69.96
5679;BME280;2862;52.560;13.566;2024-02-23T05:04:09;98251.69;;;8.93;69.21
5679;BME280;2862;52.560;13.566;2024-02-23T05:14:12;98264.84;;;8.94;69.78
5679;BME280;2862;52.560;13.566;2024-02-23T05:24:16;98275.94;;;8.83;69.46
5679;BME280;2862;52.560;13.566;2024-02-23T05:34:19;98300.13;;;8.73;69.73
5679;BME280;2862;52.560;13.566;2024-02-23T05:44:24;98341.38;;;8.46;69.50
5679;BME280;2862;52.560;13.566;2024-02-23T05:54:27;98379.72;;;8.37;69.60
5679;BME280;2862;52.560;13.566;2024-02-23T06:04:31;98399.72;;;8.01;70.64
5679;BME280;2862;52.560;13.566;2024-02-23T06:14:34;98434.97;;;7.94;70.61
5679;BME280;2862;52.560;13.566;2024-02-23T06:24:39;98472.03;;;7.80;69.88
5679;BME280;2862;52.560;13.566;2024-02-23T06:34:42;98492.34;;;7.89;69.30
5679;BME280;2862;52.560;13.566;2024-02-23T06:44:49;98510.31;;;7.87;69.17
5679;BME280;2862;52.560;13.566;2024-02-23T06:54:52;98536.28;;;8.09;68.16
5679;BME280;2862;52.560;13.566;2024-02-23T07:04:57;98566.06;;;10.19;63.07
5679;BME280;2862;52.560;13.566;2024-02-23T07:15:01;98585.59;;;9.57;62.15
5679;BME280;2862;52.560;13.566;2024-02-23T07:25:06;98592.31;;;8.97;62.94
5679;BME280;2862;52.560;13.566;2024-02-23T07:35:09;98596.38;;;9.32;63.32
5679;BME280;2862;52.560;13.566;2024-02-23T07:45:13;98606.69;;;8.56;65.24
5679;BME280;2862;52.560;13.566;2024-02-23T07:55:16;98632.84;;;8.44;66.99
5679;BME280;2862;52.560;13.566;2024-02-23T08:05:20;98661.13;;;8.69;66.15
5679;BME280;2862;52.560;13.566;2024-02-23T08:15:23;98671.97;;;10.03;62.05
5679;BME280;2862;52.560;13.566;2024-02-23T08:25:27;98671.69;;;10.98;60.37
5679;BME280;2862;52.560;13.566;2024-02-23T08:35:30;98706.22;;;10.31;60.77
5679;BME280;2862;52.560;13.566;2024-02-23T08:45:35;98719.75;;;9.90;62.30
5679;BME280;2862;52.560;13.566;2024-02-23T08:55:38;98712.75;;;9.89;63.02
5679;BME280;2862;52.560;13.566;2024-02-23T09:05:42;98732.97;;;10.54;59.59
5679;BME280;2862;52.560;13.566;2024-02-23T09:15:45;98740.00;;;10.78;56.23
5679;BME280;2862;52.560;13.566;2024-02-23T09:25:49;98748.81;;;10.63;56.85
5679;BME280;2862;52.560;13.566;2024-02-23T09:35:52;98748.16;;;10.61;57.31
5679;BME280;2862;52.560;13.566;2024-02-23T09:45:57;98758.44;;;10.96;54.54
5679;BME280;2862;52.560;13.566;2024-02-23T09:56:00;98777.69;;;10.91;54.26
5679;BME280;2862;52.560;13.566;2024-02-23T10:06:05;98797.16;;;11.46;52.95
5679;BME280;2862;52.560;13.566;2024-02-23T10:16:09;98801.47;;;10.86;52.24
5679;BME280;2862;52.560;13.566;2024-02-23T10:26:15;98823.69;;;10.55;53.07
5679;BME280;2862;52.560;13.566;2024-02-23T10:36:20;98806.19;;;11.07;53.02
5679;BME280;2862;52.560;13.566;2024-02-23T10:46:26;98819.91;;;10.73;55.30
5679;BME280;2862;52.560;13.566;2024-02-23T10:56:29;98818.91;;;10.74;54.43
5679;BME280;2862;52.560;13.566;2024-02-23T11:06:34;98822.44;;;10.97;54.77
5679;BME280;2862;52.560;13.566;2024-02-23T11:16:38;98827.56;;;11.30;50.17
5679;BME280;2862;52.560;13.566;2024-02-23T11:26:43;98826.47;;;10.93;51.32
5679;BME280;2862;52.560;13.566;2024-02-23T11:36:50;98833.75;;;11.07;51.51
5679;BME280;2862;52.560;13.566;2024-02-23T11:46:55;98836.75;;;11.04;51.09
5679;BME280;2862;52.560;13.566;2024-02-23T11:56:58;98852.09;;;11.10;50.82
5679;BME280;2862;52.560;13.566;2024-02-23T12:07:03;98861.81;;;10.80;51.51
5679;BME280;2862;52.560;13.566;2024-02-23T12:17:07;98862.75;;;10.96;51.50
5679;BME280;2862;52.560;13.566;2024-02-23T12:27:16;98876.44;;;10.61;50.97
5679;BME280;2862;52.560;13.566;2024-02-23T12:37:20;98880.22;;;10.75;51.21
5679;BME280;2862;52.560;13.566;2024-02-23T12:47:25;98905.50;;;10.56;52.51
5679;BME280;2862;52.560;13.566;2024-02-23T12:57:28;98901.91;;;10.80;50.96
5679;BME280;2862;52.560;13.566;2024-02-23T13:18:08;98907.03;;;10.43;52.54
5679;BME280;2862;52.560;13.566;2024-02-23T13:28:40;98901.56;;;10.36;53.45
5679;BME280;2862;52.560;13.566;2024-02-23T13:38:55;98906.91;;;10.44;53.49
5679;BME280;2862;52.560;13.566;2024-02-23T13:49:13;98918.63;;;10.10;55.49
5679;BME280;2862;52.560;13.566;2024-02-23T13:59:45;98902.75;;;10.09;55.25
5679;BME280;2862;52.560;13.566;2024-02-23T14:10:46;98901.25;;;10.06;55.19
5679;BME280;2862;52.560;13.566;2024-02-23T14:21:21;98909.28;;;9.98;55.19
5679;BME280;2862;52.560;13.566;2024-02-23T14:42:50;98926.97;;;9.67;57.26
5679;BME280;2862;52.560;13.566;2024-02-23T14:53:18;98959.44;;;9.29;54.67
5679;BME280;2862;52.560;13.566;2024-02-23T15:03:33;98955.44;;;9.34;55.27
5679;BME280;2862;52.560;13.566;2024-02-23T15:13:57;98954.59;;;9.25;55.97
5679;BME280;2862;52.560;13.566;2024-02-23T15:24:21;98963.25;;;9.27;57.18
5679;BME280;2862;52.560;13.566;2024-02-23T15:35:07;98975.28;;;9.31;57.20
5679;BME280;2862;52.560;13.566;2024-02-23T15:45:49;98982.59;;;9.29;58.63
5679;BME280;2862;52.560;13.566;2024-02-23T15:56:05;98987.94;;;9.37;58.78
5679;BME280;2862;52.560;13.566;2024-02-23T16:18:13;98981.13;;;8.92;62.88
5679;BME280;2862;52.560;13.566;2024-02-23T16:40:18;98955.28;;;8.50;62.96
5679;BME280;2862;52.560;13.566;2024-02-23T16:50:40;98994.19;;;8.43;63.76
5679;BME280;2862;52.560;13.566;2024-02-23T17:00:45;99019.06;;;8.34;63.68
5679;BME280;2862;52.560;13.566;2024-02-23T17:10:49;99054.66;;;8.33;63.69
5679;BME280;2862;52.560;13.566;2024-02-23T17:20:53;99065.72;;;8.38;64.94
5679;BME280;2862;52.560;13.566;2024-02-23T17:30:57;99054.75;;;8.41;65.08
5679;BME280;2862;52.560;13.566;2024-02-23T17:41:01;99039.69;;;8.32;65.64
5679;BME280;2862;52.560;13.566;2024-02-23T17:51:04;99048.97;;;8.28;67.36
5679;BME280;2862;52.560;13.566;2024-02-23T18:01:08;99029.16;;;8.31;67.55
5679;BME280;2862;52.560;13.566;2024-02-23T18:11:11;99032.44;;;8.24;68.16
5679;BME280;2862;52.560;13.566;2024-02-23T18:21:15;99051.94;;;8.07;67.72
5679;BME280;2862;52.560;13.566;2024-02-23T18:31:18;99055.06;;;8.03;68.64
5679;BME280;2862;52.560;13.566;2024-02-23T18:41:23;99054.94;;;7.86;68.74
5679;BME280;2862;52.560;13.566;2024-02-23T18:51:26;99054.81;;;7.78;69.24
5679;BME280;2862;52.560;13.566;2024-02-23T19:01:31;99042.44;;;7.69;69.94
5679;BME280;2862;52.560;13.566;2024-02-23T19:11:34;99051.56;;;7.66;69.95
5679;BME280;2862;52.560;13.566;2024-02-23T19:21:39;99054.19;;;7.49;71.65
5679;BME280;2862;52.560;13.566;2024-02-23T19:31:42;99040.34;;;7.45;71.82
5679;BME280;2862;52.560;13.566;2024-02-23T19:41:46;99036.38;;;7.31;73.48
5679;BME280;2862;52.560;13.566;2024-02-23T19:51:49;99038.25;;;7.21;73.08
5679;BME280;2862;52.560;13.566;2024-02-23T20:01:55;99038.44;;;7.10;74.26
5679;BME280;2862;52.560;13.566;2024-02-23T20:11:59;99057.03;;;7.10;74.04
5679;BME280;2862;52.560;13.566;2024-02-23T20:22:04;99073.50;;;7.23;73.98
5679;BME280;2862;52.560;13.566;2024-02-23T20:32:07;99096.97;;;7.28;73.62
5679;BME280;2862;52.560;13.566;2024-02-23T20:42:14;99107.75;;;7.26;74.25
5679;BME280;2862;52.560;13.566;2024-02-23T20:52:17;99106.25;;;7.24;74.28
5679;BME280;2862;52.560;13.566;2024-02-23T21:02:21;99096.22;;;7.08;75.67
5679;BME280;2862;52.560;13.566;2024-02-23T21:12:24;99095.53;;;7.06;76.37
5679;BME280;2862;52.560;13.566;2024-02-23T21:22:28;99081.22;;;6.70;78.27
5679;BME280;2862;52.560;13.566;2024-02-23T21:32:31;99062.19;;;6.84;78.56
5679;BME280;2862;52.560;13.566;2024-02-23T21:42:36;99068.19;;;6.76;79.21
5679;BME280;2862;52.560;13.566;2024-02-23T21:52:39;99067.25;;;6.68;79.91
5679;BME280;2862;52.560;13.566;2024-02-23T22:02:43;99091.31;;;6.66;79.78
5679;BME280;2862;52.560;13.566;2024-02-23T22:12:46;99098.13;;;6.69;79.90
5679;BME280;2862;52.560;13.566;2024-02-23T22:22:51;99108.78;;;6.59;80.26
5679;BME280;2862;52.560;13.566;2024-02-23T22:32:53;99119.81;;;6.64;82.69
5679;BME280;2862;52.560;13.566;2024-02-23T22:42:58;99100.28;;;6.46;81.67
5679;BME280;2862;52.560;13.566;2024-02-23T22:53:01;99097.09;;;6.32;81.71
5679;BME280;2862;52.560;13.566;2024-02-23T23:03:05;99075.56;;;6.06;83.31
5679;BME280;2862;52.560;13.566;2024-02-23T23:13:08;99097.78;;;6.15;82.36
5679;BME280;2862;52.560;13.566;2024-02-23T23:23:12;99091.63;;;6.24;82.10
5679;BME280;2862;52.560;13.566;2024-02-23T23:33:15;99089.81;;;6.15;82.82
5679;BME280;2862;52.560;13.566;2024-02-23T23:43:20;99091.06;;;6.01;83.18
5679;BME280;2862;52.560;13.566;2024-02-23T23:53:23;99083.13;;;5.92;84.04
